createdAt,value
2023-04-27T00:04:43.211Z,6.20
2023-04-27T00:09:46.607Z,6.10
2023-04-27T00:14:49.911Z,6.00
2023-04-27T00:19:53.470Z,5.80
2023-04-27T00:24:56.470Z,5.80
2023-04-27T00:29:59.484Z,5.70
2023-04-27T00:35:02.540Z,5.70
2023-04-27T00:40:09.781Z,5.60
2023-04-27T00:45:13.596Z,5.50
2023-04-27T00:50:18.910Z,5.40
2023-04-27T00:55:24.029Z,5.20
2023-04-27T01:00:27.502Z,5.00
2023-04-27T01:05:32.585Z,4.90
2023-04-27T01:10:37.744Z,4.90
2023-04-27T01:15:41.503Z,4.80
2023-04-27T01:20:45.102Z,4.80
2023-04-27T01:25:48.034Z,4.70
2023-04-27T01:30:51.292Z,4.60
2023-04-27T01:35:54.594Z,4.50
2023-04-27T01:41:02.378Z,4.50
2023-04-27T01:46:08.250Z,4.50
2023-04-27T01:51:11.343Z,4.50
2023-04-27T01:56:14.494Z,4.40
2023-04-27T02:01:17.579Z,4.40
2023-04-27T02:06:20.623Z,4.40
2023-04-27T02:11:23.628Z,4.30
2023-04-27T02:16:26.639Z,4.30
2023-04-27T02:21:29.726Z,4.20
2023-04-27T02:26:33.194Z,4.20
2023-04-27T02:31:36.135Z,4.10
2023-04-27T02:36:39.140Z,4.10
2023-04-27T02:41:42.142Z,4.00
2023-04-27T02:46:45.221Z,3.90
2023-04-27T02:51:48.227Z,3.90
2023-04-27T02:56:51.790Z,3.80
2023-04-27T03:01:54.721Z,3.70
2023-04-27T03:06:57.681Z,3.60
2023-04-27T03:12:00.619Z,3.50
2023-04-27T03:17:03.629Z,3.40
2023-04-27T03:22:06.524Z,3.30
2023-04-27T03:27:09.831Z,3.20
2023-04-27T03:32:12.945Z,3.20
2023-04-27T03:37:16.211Z,3.20
2023-04-27T03:42:19.236Z,3.20
2023-04-27T03:47:22.793Z,3.10
2023-04-27T03:52:26.494Z,3.10
2023-04-27T03:57:29.424Z,3.20
2023-04-27T04:02:33.352Z,3.30
2023-04-27T04:07:36.715Z,3.20
2023-04-27T04:12:39.487Z,3.30
2023-04-27T04:17:42.556Z,3.30
2023-04-27T04:22:45.640Z,3.40
2023-04-27T04:27:48.714Z,3.60
2023-04-27T04:32:52.256Z,3.90
2023-04-27T04:37:55.131Z,4.20
2023-04-27T04:42:58.021Z,4.40
2023-04-27T04:48:02.190Z,4.70
2023-04-27T04:53:05.181Z,4.90
2023-04-27T04:58:08.997Z,5.10
2023-04-27T05:03:12.072Z,5.30
2023-04-27T05:08:15.098Z,5.50
2023-04-27T05:13:18.206Z,5.70
2023-04-27T05:18:21.241Z,5.80
2023-04-27T05:23:24.232Z,6.00
2023-04-27T05:28:27.168Z,6.10
2023-04-27T05:33:30.190Z,6.30
2023-04-27T05:38:34.839Z,6.60
2023-04-27T05:43:40.424Z,6.80
2023-04-27T05:48:43.912Z,7.20
2023-04-27T05:53:46.911Z,7.60
2023-04-27T05:58:49.789Z,8.00
2023-04-27T06:03:52.923Z,8.50
2023-04-27T06:08:56.089Z,8.80
2023-04-27T06:13:59.101Z,9.30
2023-04-27T06:19:02.035Z,9.60
2023-04-27T06:24:05.116Z,9.90
2023-04-27T06:29:08.261Z,10.20
2023-04-27T06:34:11.347Z,10.40
2023-04-27T06:39:14.558Z,10.40
2023-04-27T06:44:17.729Z,10.40
2023-04-27T06:49:20.968Z,10.50
2023-04-27T06:54:24.206Z,10.60
2023-04-27T06:59:27.704Z,10.60
2023-04-27T07:04:30.860Z,10.70
2023-04-27T07:09:34.111Z,10.80
2023-04-27T07:14:37.191Z,10.90
2023-04-27T07:19:40.177Z,11.10
2023-04-27T07:24:43.413Z,11.30
2023-04-27T07:29:47.289Z,11.60
2023-04-27T07:34:53.959Z,11.90
2023-04-27T07:39:59.585Z,12.20
2023-04-27T07:45:02.559Z,12.60
2023-04-27T07:50:07.962Z,13.00
2023-04-27T07:55:11.132Z,13.00
2023-04-27T08:00:14.341Z,13.00
2023-04-27T08:05:18.273Z,13.00
2023-04-27T08:10:22.291Z,13.30
2023-04-27T08:15:25.048Z,13.70
2023-04-27T08:20:28.020Z,13.90
2023-04-27T08:25:32.072Z,14.20
2023-04-27T08:30:35.022Z,14.30
2023-04-27T08:35:38.287Z,14.40
2023-04-27T08:40:44.729Z,14.30
2023-04-27T08:45:53.426Z,14.20
2023-04-27T08:50:59.614Z,14.10
2023-04-27T08:56:04.690Z,13.80
2023-04-27T09:01:09.000Z,13.50
2023-04-27T09:06:12.221Z,13.40
2023-04-27T09:11:33.260Z,13.40
2023-04-27T09:16:36.557Z,13.90
2023-04-27T09:21:39.650Z,14.30
2023-04-27T09:26:49.272Z,14.40
2023-04-27T09:31:52.334Z,14.30
2023-04-27T09:36:55.840Z,14.30
2023-04-27T09:41:58.920Z,14.60
2023-04-27T09:47:02.610Z,15.20
2023-04-27T09:52:05.675Z,15.70
2023-04-27T09:57:32.757Z,15.80
2023-04-27T10:03:23.803Z,15.40
2023-04-27T10:08:27.003Z,15.00
2023-04-27T10:13:32.415Z,14.90
2023-04-27T10:18:35.437Z,14.90
2023-04-27T10:23:51.842Z,15.30
2023-04-27T10:29:09.155Z,16.00
2023-04-27T10:34:21.181Z,15.80
2023-04-27T10:39:47.932Z,15.70
2023-04-27T10:44:57.663Z,16.00
2023-04-27T10:50:01.378Z,15.70
2023-04-27T10:55:20.315Z,15.50
2023-04-27T11:00:32.120Z,15.50
2023-04-27T11:05:36.197Z,15.90
2023-04-27T11:10:42.894Z,16.10
2023-04-27T11:15:49.647Z,16.10
2023-04-27T11:21:18.400Z,16.30
2023-04-27T11:26:25.154Z,16.20
2023-04-27T11:31:38.316Z,16.20
2023-04-27T11:36:41.591Z,16.00
2023-04-27T11:41:46.481Z,16.10
2023-04-27T11:46:50.175Z,16.60
2023-04-27T11:51:53.164Z,17.00
2023-04-27T11:57:06.055Z,17.20
2023-04-27T12:02:10.066Z,16.90
2023-04-27T12:07:13.303Z,16.30
2023-04-27T12:12:21.914Z,17.00
2023-04-27T12:17:24.906Z,18.30
2023-04-27T12:22:27.899Z,19.50
2023-04-27T12:27:30.986Z,20.60
2023-04-27T12:32:33.926Z,20.00
2023-04-27T12:37:37.998Z,19.40
2023-04-27T12:42:41.079Z,19.40
2023-04-27T12:47:58.689Z,19.30
2023-04-27T12:53:05.432Z,19.40
2023-04-27T12:58:08.401Z,19.30
2023-04-27T13:03:11.716Z,18.90
2023-04-27T13:08:15.376Z,18.70
2023-04-27T13:13:18.379Z,18.90
2023-04-27T13:18:21.338Z,19.40
2023-04-27T13:23:24.413Z,19.90
2023-04-27T13:28:27.382Z,20.00
2023-04-27T13:33:30.460Z,20.40
2023-04-27T13:38:33.509Z,21.30
2023-04-27T13:43:36.558Z,22.30
2023-04-27T13:48:39.506Z,23.00
2023-04-27T13:53:42.453Z,23.20
2023-04-27T13:58:46.436Z,23.20
2023-04-27T14:03:49.515Z,23.20
2023-04-27T14:08:54.321Z,23.20
2023-04-27T14:13:58.449Z,23.00
2023-04-27T14:19:01.357Z,23.00
2023-04-27T14:24:04.489Z,22.20
2023-04-27T14:29:07.567Z,21.90
2023-04-27T14:34:11.078Z,22.20
2023-04-27T14:39:14.506Z,21.40
2023-04-27T14:44:17.639Z,20.90
2023-04-27T14:49:21.067Z,21.10
2023-04-27T14:54:24.035Z,21.00
2023-04-27T14:59:27.104Z,20.80
2023-04-27T15:04:30.182Z,20.20
2023-04-27T15:09:34.549Z,20.00
2023-04-27T15:14:37.595Z,20.30
2023-04-27T15:19:40.583Z,20.60
2023-04-27T15:24:43.568Z,20.20
2023-04-27T15:29:46.579Z,20.20
2023-04-27T15:34:50.012Z,20.20
2023-04-27T15:39:53.029Z,20.40
2023-04-27T15:44:56.301Z,20.50
2023-04-27T15:49:59.283Z,20.20
2023-04-27T15:55:04.314Z,20.00
2023-04-27T16:00:11.990Z,19.80
2023-04-27T16:05:15.559Z,19.70
2023-04-27T16:10:18.517Z,19.40
2023-04-27T16:15:21.519Z,19.20
2023-04-27T16:20:25.545Z,19.00
2023-04-27T16:25:28.628Z,18.90
2023-04-27T16:30:31.667Z,18.60
2023-04-27T16:35:35.768Z,18.40
2023-04-27T16:40:38.478Z,18.20
2023-04-27T16:45:44.089Z,18.00
2023-04-27T16:50:47.311Z,17.40
2023-04-27T16:55:50.347Z,16.90
2023-04-27T17:00:53.301Z,16.30
2023-04-27T17:05:56.494Z,15.80
2023-04-27T17:11:00.108Z,15.40
2023-04-27T17:16:04.793Z,15.00
2023-04-27T17:21:07.715Z,14.60
2023-04-27T17:26:12.174Z,14.30
2023-04-27T17:31:17.564Z,14.00
2023-04-27T17:36:20.786Z,13.70
2023-04-27T17:41:23.762Z,13.50
2023-04-27T17:46:26.790Z,13.30
2023-04-27T17:51:29.784Z,13.10
2023-04-27T17:56:32.915Z,12.90
2023-04-27T18:01:36.543Z,12.70
2023-04-27T18:06:39.691Z,12.50
2023-04-27T18:11:42.650Z,12.20
2023-04-27T18:16:45.712Z,12.00
2023-04-27T18:21:48.688Z,11.80
2023-04-27T18:26:51.671Z,11.60
2023-04-27T18:31:54.709Z,11.40
2023-04-27T18:36:57.659Z,11.30
2023-04-27T18:42:01.969Z,11.10
2023-04-27T18:47:05.083Z,10.90
2023-04-27T18:52:11.386Z,10.80
2023-04-27T18:57:14.496Z,10.60
2023-04-27T19:02:17.646Z,10.50
2023-04-27T19:07:22.804Z,10.30
2023-04-27T19:12:26.194Z,10.20
2023-04-27T19:17:29.149Z,10.10
2023-04-27T19:22:36.784Z,9.90
2023-04-27T19:27:40.016Z,9.90
2023-04-27T19:32:43.678Z,9.80
2023-04-27T19:37:46.863Z,9.80
2023-04-27T19:42:49.979Z,9.70
2023-04-27T19:47:54.216Z,9.60
2023-04-27T19:52:57.279Z,9.50
2023-04-27T19:58:00.337Z,9.40
2023-04-27T20:03:04.795Z,9.20
2023-04-27T20:08:08.204Z,9.10
2023-04-27T20:13:11.323Z,8.90
2023-04-27T20:18:14.297Z,8.80
2023-04-27T20:23:17.418Z,8.70
2023-04-27T20:28:20.367Z,8.60
2023-04-27T20:33:23.465Z,8.40
2023-04-27T20:38:26.597Z,8.30
2023-04-27T20:43:29.552Z,8.10
2023-04-27T20:48:32.561Z,7.80
2023-04-27T20:53:35.769Z,7.70
2023-04-27T20:58:38.855Z,7.60
2023-04-27T21:03:42.266Z,7.50
2023-04-27T21:08:45.962Z,7.40
2023-04-27T21:13:49.452Z,7.30
2023-04-27T21:18:52.267Z,7.20
2023-04-27T21:24:06.729Z,7.10
2023-04-27T21:29:10.558Z,7.00
2023-04-27T21:34:13.789Z,6.90
2023-04-27T21:39:16.958Z,6.80
2023-04-27T21:44:19.912Z,6.70
2023-04-27T21:49:22.965Z,6.60
2023-04-27T21:54:25.924Z,6.40
2023-04-27T21:59:28.912Z,6.40
2023-04-27T22:04:38.471Z,6.30
2023-04-27T22:09:41.871Z,6.20
2023-04-27T22:14:46.899Z,6.20
2023-04-27T22:19:49.907Z,6.20
2023-04-27T22:24:53.192Z,6.10
2023-04-27T22:29:56.120Z,6.10
2023-04-27T22:35:00.138Z,6.00
2023-04-27T22:40:04.472Z,6.00
2023-04-27T22:45:08.261Z,5.90
2023-04-27T22:50:12.349Z,5.80
2023-04-27T22:55:15.417Z,5.70
2023-04-27T23:00:18.516Z,5.70
2023-04-27T23:05:21.701Z,5.60
2023-04-27T23:10:24.795Z,5.50
2023-04-27T23:15:28.573Z,5.50
2023-04-27T23:20:31.907Z,5.50
2023-04-27T23:25:34.959Z,5.50
2023-04-27T23:30:37.958Z,5.50
2023-04-27T23:35:40.854Z,5.50
2023-04-27T23:40:43.874Z,5.50
2023-04-27T23:45:53.178Z,5.50
2023-04-27T23:51:04.257Z,5.50
2023-04-27T23:56:17.930Z,5.50
